sensor_id;sensor_type;location;lat;lon;timestamp;pressure;altitude;pressure_sealevel;temperature;humidity
15604;BME280;7902;49.042;9.092;2023-09-19T00:01:29;98614.91;;;22.31;59.02
15604;BME280;7902;49.042;9.092;2023-09-19T00:03:57;98622.94;;;22.31;59.33
15604;BME280;7902;49.042;9.092;2023-09-19T00:06:24;98624.66;;;22.11;59.99
15604;BME280;7902;49.042;9.092;2023-09-19T00:08:52;98626.22;;;22.27;59.72
15604;BME280;7902;49.042;9.092;2023-09-19T00:11:18;98626.41;;;22.32;59.21
15604;BME280;7902;49.042;9.092;2023-09-19T00:13:44;98630.16;;;22.03;59.91
15604;BME280;7902;49.042;9.092;2023-09-19T00:16:10;98635.19;;;22.19;59.63
15604;BME280;7902;49.042;9.092;2023-09-19T00:18:38;98628.00;;;22.20;59.69
15604;BME280;7902;49.042;9.092;2023-09-19T00:21:04;98644.88;;;22.20;59.42
15604;BME280;7902;49.042;9.092;2023-09-19T00:23:33;98654.22;;;22.38;59.05
15604;BME280;7902;49.042;9.092;2023-09-19T00:26:00;98647.97;;;22.24;59.34
15604;BME280;7902;49.042;9.092;2023-09-19T00:28:27;98650.47;;;22.25;59.53
15604;BME280;7902;49.042;9.092;2023-09-19T00:30:53;98656.19;;;22.22;59.72
15604;BME280;7902;49.042;9.092;2023-09-19T00:33:21;98657.09;;;21.80;60.53
15604;BME280;7902;49.042;9.092;2023-09-19T00:35:51;98658.78;;;22.09;59.76
15604;BME280;7902;49.042;9.092;2023-09-19T00:38:18;98662.09;;;21.90;60.42
15604;BME280;7902;49.042;9.092;2023-09-19T00:40:49;98669.50;;;21.88;60.47
15604;BME280;7902;49.042;9.092;2023-09-19T00:43:17;98661.09;;;21.91;60.64
15604;BME280;7902;49.042;9.092;2023-09-19T00:45:45;98673.16;;;22.08;60.07
15604;BME280;7902;49.042;9.092;2023-09-19T00:48:14;98664.53;;;22.06;60.03
15604;BME280;7902;49.042;9.092;2023-09-19T00:50:44;98676.19;;;21.77;60.39
15604;BME280;7902;49.042;9.092;2023-09-19T00:53:14;98676.88;;;21.86;60.22
15604;BME280;7902;49.042;9.092;2023-09-19T00:55:41;98675.13;;;21.93;60.22
15604;BME280;7902;49.042;9.092;2023-09-19T00:58:08;98675.44;;;21.83;60.51
15604;BME280;7902;49.042;9.092;2023-09-19T01:00:36;98669.44;;;21.81;60.44
15604;BME280;7902;49.042;9.092;2023-09-19T01:03:02;98681.38;;;21.85;60.36
15604;BME280;7902;49.042;9.092;2023-09-19T01:05:29;98673.91;;;21.74;60.67
15604;BME280;7902;49.042;9.092;2023-09-19T01:07:55;98675.00;;;21.80;60.49
15604;BME280;7902;49.042;9.092;2023-09-19T01:10:22;98678.09;;;21.83;60.34
15604;BME280;7902;49.042;9.092;2023-09-19T01:13:05;98673.50;;;21.77;60.18
15604;BME280;7902;49.042;9.092;2023-09-19T01:18:29;98694.97;;;21.84;60.58
15604;BME280;7902;49.042;9.092;2023-09-19T01:27:14;98705.06;;;21.67;60.61
15604;BME280;7902;49.042;9.092;2023-09-19T01:29:48;98716.22;;;21.71;60.60
15604;BME280;7902;49.042;9.092;2023-09-19T01:32:17;98714.94;;;21.67;60.70
15604;BME280;7902;49.042;9.092;2023-09-19T01:34:56;98712.59;;;21.78;60.19
15604;BME280;7902;49.042;9.092;2023-09-19T01:37:24;98718.13;;;21.77;60.46
15604;BME280;7902;49.042;9.092;2023-09-19T01:39:54;98714.41;;;21.57;60.72
15604;BME280;7902;49.042;9.092;2023-09-19T01:42:24;98718.50;;;21.74;60.38
15604;BME280;7902;49.042;9.092;2023-09-19T01:47:54;98717.44;;;21.68;60.63
15604;BME280;7902;49.042;9.092;2023-09-19T01:50:32;98718.19;;;21.62;60.85
15604;BME280;7902;49.042;9.092;2023-09-19T01:53:05;98724.75;;;21.60;60.94
15604;BME280;7902;49.042;9.092;2023-09-19T01:55:37;98730.72;;;21.62;60.85
15604;BME280;7902;49.042;9.092;2023-09-19T01:58:15;98727.69;;;21.65;60.72
15604;BME280;7902;49.042;9.092;2023-09-19T02:00:43;98735.78;;;21.57;60.81
15604;BME280;7902;49.042;9.092;2023-09-19T02:03:11;98735.66;;;21.43;61.28
15604;BME280;7902;49.042;9.092;2023-09-19T02:05:38;98740.38;;;21.63;61.02
15604;BME280;7902;49.042;9.092;2023-09-19T02:08:05;98739.50;;;21.56;60.96
15604;BME280;7902;49.042;9.092;2023-09-19T02:10:31;98731.88;;;21.74;60.60
15604;BME280;7902;49.042;9.092;2023-09-19T02:12:57;98735.38;;;21.74;60.39
15604;BME280;7902;49.042;9.092;2023-09-19T02:15:24;98733.47;;;21.68;60.67
15604;BME280;7902;49.042;9.092;2023-09-19T02:17:50;98730.53;;;21.63;60.82
15604;BME280;7902;49.042;9.092;2023-09-19T02:20:17;98739.38;;;21.64;60.65
15604;BME280;7902;49.042;9.092;2023-09-19T02:22:45;98744.59;;;21.72;60.42
15604;BME280;7902;49.042;9.092;2023-09-19T02:25:11;98742.44;;;21.61;60.81
15604;BME280;7902;49.042;9.092;2023-09-19T02:27:39;98749.06;;;21.65;60.71
15604;BME280;7902;49.042;9.092;2023-09-19T02:30:05;98749.50;;;21.68;60.54
15604;BME280;7902;49.042;9.092;2023-09-19T02:32:31;98751.78;;;21.50;61.05
15604;BME280;7902;49.042;9.092;2023-09-19T02:35:01;98756.47;;;21.48;61.16
15604;BME280;7902;49.042;9.092;2023-09-19T02:37:27;98756.94;;;21.52;61.19
15604;BME280;7902;49.042;9.092;2023-09-19T02:39:53;98754.66;;;21.70;60.67
15604;BME280;7902;49.042;9.092;2023-09-19T02:42:19;98754.31;;;21.58;60.87
15604;BME280;7902;49.042;9.092;2023-09-19T02:44:45;98757.81;;;21.59;60.72
15604;BME280;7902;49.042;9.092;2023-09-19T02:47:12;98760.72;;;21.42;61.47
15604;BME280;7902;49.042;9.092;2023-09-19T02:49:40;98755.38;;;21.42;61.43
15604;BME280;7902;49.042;9.092;2023-09-19T02:52:08;98757.81;;;21.59;60.95
15604;BME280;7902;49.042;9.092;2023-09-19T02:54:34;98757.13;;;21.50;61.11
15604;BME280;7902;49.042;9.092;2023-09-19T02:56:59;98763.44;;;21.64;61.01
15604;BME280;7902;49.042;9.092;2023-09-19T02:59:25;98766.66;;;21.59;60.91
15604;BME280;7902;49.042;9.092;2023-09-19T03:01:51;98761.00;;;21.69;60.78
15604;BME280;7902;49.042;9.092;2023-09-19T03:04:20;98768.13;;;21.62;60.86
15604;BME280;7902;49.042;9.092;2023-09-19T03:06:46;98767.63;;;21.52;61.24
15604;BME280;7902;49.042;9.092;2023-09-19T03:09:12;98765.63;;;21.39;61.47
15604;BME280;7902;49.042;9.092;2023-09-19T03:11:39;98766.63;;;21.38;61.64
15604;BME280;7902;49.042;9.092;2023-09-19T03:14:06;98763.72;;;21.54;61.25
15604;BME280;7902;49.042;9.092;2023-09-19T03:16:32;98778.41;;;21.43;61.71
15604;BME280;7902;49.042;9.092;2023-09-19T03:18:59;98777.66;;;21.71;60.76
15604;BME280;7902;49.042;9.092;2023-09-19T03:21:25;98779.84;;;21.61;61.07
15604;BME280;7902;49.042;9.092;2023-09-19T03:23:51;98779.09;;;21.52;61.64
15604;BME280;7902;49.042;9.092;2023-09-19T03:26:17;98776.53;;;21.59;61.37
15604;BME280;7902;49.042;9.092;2023-09-19T03:28:43;98780.84;;;21.60;61.28
15604;BME280;7902;49.042;9.092;2023-09-19T03:31:10;98776.22;;;21.68;61.05
15604;BME280;7902;49.042;9.092;2023-09-19T03:33:36;98773.97;;;21.51;61.45
15604;BME280;7902;49.042;9.092;2023-09-19T03:36:03;98776.97;;;21.62;61.31
15604;BME280;7902;49.042;9.092;2023-09-19T03:38:33;98788.19;;;21.36;61.80
15604;BME280;7902;49.042;9.092;2023-09-19T03:41:00;98788.56;;;21.69;61.23
15604;BME280;7902;49.042;9.092;2023-09-19T03:43:26;98787.59;;;21.56;61.37
15604;BME280;7902;49.042;9.092;2023-09-19T03:45:55;98786.41;;;21.43;61.75
15604;BME280;7902;49.042;9.092;2023-09-19T03:48:21;98783.00;;;21.50;61.75
15604;BME280;7902;49.042;9.092;2023-09-19T03:50:47;98791.13;;;21.41;61.82
15604;BME280;7902;49.042;9.092;2023-09-19T03:53:13;98801.31;;;21.53;61.72
15604;BME280;7902;49.042;9.092;2023-09-19T03:55:39;98793.00;;;21.62;61.28
15604;BME280;7902;49.042;9.092;2023-09-19T03:58:05;98792.91;;;21.70;61.07
15604;BME280;7902;49.042;9.092;2023-09-19T04:00:31;98792.13;;;21.55;61.70
15604;BME280;7902;49.042;9.092;2023-09-19T04:02:57;98795.97;;;21.53;61.81
15604;BME280;7902;49.042;9.092;2023-09-19T04:05:24;98798.28;;;21.56;61.60
15604;BME280;7902;49.042;9.092;2023-09-19T04:07:49;98790.28;;;21.56;61.61
15604;BME280;7902;49.042;9.092;2023-09-19T04:10:19;98801.00;;;21.62;61.47
15604;BME280;7902;49.042;9.092;2023-09-19T04:12:54;98792.16;;;21.62;61.36
15604;BME280;7902;49.042;9.092;2023-09-19T04:15:20;98801.22;;;21.61;61.37
15604;BME280;7902;49.042;9.092;2023-09-19T04:17:50;98798.28;;;21.56;61.36
15604;BME280;7902;49.042;9.092;2023-09-19T04:20:19;98806.31;;;21.56;61.55
15604;BME280;7902;49.042;9.092;2023-09-19T04:22:46;98808.50;;;21.52;61.96
15604;BME280;7902;49.042;9.092;2023-09-19T04:25:12;98814.66;;;21.53;61.81
15604;BME280;7902;49.042;9.092;2023-09-19T04:27:38;98826.22;;;21.38;62.27
15604;BME280;7902;49.042;9.092;2023-09-19T04:30:06;98821.13;;;21.43;61.89
15604;BME280;7902;49.042;9.092;2023-09-19T04:32:36;98820.94;;;21.60;61.51
15604;BME280;7902;49.042;9.092;2023-09-19T04:35:08;98829.72;;;21.39;62.16
15604;BME280;7902;49.042;9.092;2023-09-19T04:37:39;98835.22;;;21.52;61.80
15604;BME280;7902;49.042;9.092;2023-09-19T04:40:08;98830.53;;;21.54;61.62
15604;BME280;7902;49.042;9.092;2023-09-19T04:42:53;98829.78;;;21.60;61.56
15604;BME280;7902;49.042;9.092;2023-09-19T04:45:24;98839.66;;;21.45;61.50
15604;BME280;7902;49.042;9.092;2023-09-19T04:47:50;98838.09;;;21.51;61.68
15604;BME280;7902;49.042;9.092;2023-09-19T04:50:16;98834.41;;;21.52;61.57
15604;BME280;7902;49.042;9.092;2023-09-19T04:52:44;98842.88;;;21.55;61.70
15604;BME280;7902;49.042;9.092;2023-09-19T04:55:14;98840.66;;;21.44;62.00
15604;BME280;7902;49.042;9.092;2023-09-19T04:57:47;98843.34;;;21.44;62.19
15604;BME280;7902;49.042;9.092;2023-09-19T05:00:17;98846.09;;;21.51;62.19
15604;BME280;7902;49.042;9.092;2023-09-19T05:02:46;98848.00;;;21.57;61.95
15604;BME280;7902;49.042;9.092;2023-09-19T05:05:12;98843.88;;;21.54;61.85
15604;BME280;7902;49.042;9.092;2023-09-19T05:07:42;98849.13;;;21.48;62.28
15604;BME280;7902;49.042;9.092;2023-09-19T05:10:09;98854.31;;;21.49;62.12
15604;BME280;7902;49.042;9.092;2023-09-19T05:12:39;98866.75;;;21.42;62.40
15604;BME280;7902;49.042;9.092;2023-09-19T05:15:06;98856.28;;;21.62;61.67
15604;BME280;7902;49.042;9.092;2023-09-19T05:17:33;98866.25;;;21.53;62.19
15604;BME280;7902;49.042;9.092;2023-09-19T05:20:00;98865.09;;;21.56;62.08
15604;BME280;7902;49.042;9.092;2023-09-19T05:22:31;98863.53;;;21.47;62.40
15604;BME280;7902;49.042;9.092;2023-09-19T05:24:58;98869.47;;;21.63;61.78
15604;BME280;7902;49.042;9.092;2023-09-19T05:27:24;98879.56;;;21.47;62.57
15604;BME280;7902;49.042;9.092;2023-09-19T05:29:50;98876.59;;;21.56;62.27
15604;BME280;7902;49.042;9.092;2023-09-19T05:32:19;98883.25;;;21.45;62.55
15604;BME280;7902;49.042;9.092;2023-09-19T05:34:46;98879.19;;;21.50;62.30
15604;BME280;7902;49.042;9.092;2023-09-19T05:37:12;98887.75;;;21.45;62.58
15604;BME280;7902;49.042;9.092;2023-09-19T05:39:42;98891.53;;;21.21;63.24
15604;BME280;7902;49.042;9.092;2023-09-19T05:42:08;98897.44;;;21.31;62.80
15604;BME280;7902;49.042;9.092;2023-09-19T05:44:34;98896.50;;;21.24;62.94
15604;BME280;7902;49.042;9.092;2023-09-19T05:47:00;98882.78;;;21.42;62.64
15604;BME280;7902;49.042;9.092;2023-09-19T05:49:25;98885.63;;;21.40;62.70
15604;BME280;7902;49.042;9.092;2023-09-19T05:51:51;98892.63;;;21.27;63.16
15604;BME280;7902;49.042;9.092;2023-09-19T05:54:22;98902.50;;;21.26;62.89
15604;BME280;7902;49.042;9.092;2023-09-19T05:56:48;98918.63;;;21.18;63.32
15604;BME280;7902;49.042;9.092;2023-09-19T05:59:14;98922.81;;;21.13;63.64
15604;BME280;7902;49.042;9.092;2023-09-19T06:01:43;98919.69;;;21.09;63.83
15604;BME280;7902;49.042;9.092;2023-09-19T06:04:09;98918.91;;;21.23;63.60
15604;BME280;7902;49.042;9.092;2023-09-19T06:06:35;98919.53;;;21.25;63.41
15604;BME280;7902;49.042;9.092;2023-09-19T06:09:04;98922.97;;;21.11;63.74
15604;BME280;7902;49.042;9.092;2023-09-19T06:11:36;98926.41;;;21.20;63.70
15604;BME280;7902;49.042;9.092;2023-09-19T06:14:03;98931.88;;;21.26;63.30
15604;BME280;7902;49.042;9.092;2023-09-19T06:16:30;98934.50;;;21.12;63.84
15604;BME280;7902;49.042;9.092;2023-09-19T06:18:58;98934.53;;;21.26;63.42
15604;BME280;7902;49.042;9.092;2023-09-19T06:21:27;98934.81;;;21.17;63.51
15604;BME280;7902;49.042;9.092;2023-09-19T06:23:53;98931.69;;;21.13;63.32
15604;BME280;7902;49.042;9.092;2023-09-19T06:26:19;98936.53;;;21.24;63.06
15604;BME280;7902;49.042;9.092;2023-09-19T06:28:45;98933.66;;;21.11;63.53
15604;BME280;7902;49.042;9.092;2023-09-19T06:31:12;98933.00;;;20.94;63.72
15604;BME280;7902;49.042;9.092;2023-09-19T06:33:38;98937.25;;;21.03;63.22
15604;BME280;7902;49.042;9.092;2023-09-19T06:36:05;98939.09;;;21.03;63.35
15604;BME280;7902;49.042;9.092;2023-09-19T06:38:32;98942.59;;;21.03;63.23
15604;BME280;7902;49.042;9.092;2023-09-19T06:41:00;98937.84;;;21.14;62.71
15604;BME280;7902;49.042;9.092;2023-09-19T06:43:27;98939.00;;;21.11;62.81
15604;BME280;7902;49.042;9.092;2023-09-19T06:45:54;98938.78;;;21.35;62.24
15604;BME280;7902;49.042;9.092;2023-09-19T06:48:20;98944.97;;;21.51;61.74
15604;BME280;7902;49.042;9.092;2023-09-19T06:50:47;98943.84;;;21.30;62.14
15604;BME280;7902;49.042;9.092;2023-09-19T06:53:13;98943.94;;;21.22;62.14
15604;BME280;7902;49.042;9.092;2023-09-19T06:55:39;98952.03;;;21.29;61.60
15604;BME280;7902;49.042;9.092;2023-09-19T06:58:06;98962.00;;;21.35;61.15
15604;BME280;7902;49.042;9.092;2023-09-19T07:00:32;98954.91;;;21.27;60.40
15604;BME280;7902;49.042;9.092;2023-09-19T07:03:03;98963.09;;;21.40;59.68
15604;BME280;7902;49.042;9.092;2023-09-19T07:05:32;98970.53;;;21.30;60.14
15604;BME280;7902;49.042;9.092;2023-09-19T07:07:59;98976.53;;;21.32;59.94
15604;BME280;7902;49.042;9.092;2023-09-19T07:10:25;98969.97;;;21.20;59.59
15604;BME280;7902;49.042;9.092;2023-09-19T07:13:06;98973.94;;;21.24;59.59
15604;BME280;7902;49.042;9.092;2023-09-19T07:15:37;98976.59;;;21.24;59.95
15604;BME280;7902;49.042;9.092;2023-09-19T07:18:06;98971.19;;;21.18;59.90
15604;BME280;7902;49.042;9.092;2023-09-19T07:20:32;98984.00;;;21.22;59.80
15604;BME280;7902;49.042;9.092;2023-09-19T07:23:00;98993.59;;;21.31;59.09
15604;BME280;7902;49.042;9.092;2023-09-19T07:25:29;98991.00;;;21.23;59.49
15604;BME280;7902;49.042;9.092;2023-09-19T07:27:56;98999.41;;;21.12;59.52
15604;BME280;7902;49.042;9.092;2023-09-19T07:30:26;98998.09;;;21.31;58.99
15604;BME280;7902;49.042;9.092;2023-09-19T07:32:53;99002.31;;;21.25;59.10
15604;BME280;7902;49.042;9.092;2023-09-19T07:35:19;99004.81;;;21.27;59.15
15604;BME280;7902;49.042;9.092;2023-09-19T07:37:48;99015.19;;;21.22;59.00
15604;BME280;7902;49.042;9.092;2023-09-19T07:40:15;99010.22;;;21.33;59.15
15604;BME280;7902;49.042;9.092;2023-09-19T07:42:41;99011.41;;;21.16;59.19
15604;BME280;7902;49.042;9.092;2023-09-19T07:45:10;99017.69;;;21.23;58.92
15604;BME280;7902;49.042;9.092;2023-09-19T07:47:46;99016.38;;;21.19;58.98
15604;BME280;7902;49.042;9.092;2023-09-19T07:50:13;99027.34;;;21.24;58.71
15604;BME280;7902;49.042;9.092;2023-09-19T07:52:39;99024.34;;;21.27;58.68
15604;BME280;7902;49.042;9.092;2023-09-19T07:55:06;99029.16;;;21.09;59.24
15604;BME280;7902;49.042;9.092;2023-09-19T07:57:37;99032.94;;;21.37;58.76
15604;BME280;7902;49.042;9.092;2023-09-19T08:00:04;99034.00;;;21.43;58.64
15604;BME280;7902;49.042;9.092;2023-09-19T08:02:36;99029.00;;;21.25;58.67
15604;BME280;7902;49.042;9.092;2023-09-19T08:05:06;99033.19;;;21.42;58.39
15604;BME280;7902;49.042;9.092;2023-09-19T08:07:39;99038.41;;;21.21;58.71
15604;BME280;7902;49.042;9.092;2023-09-19T08:10:06;99036.22;;;21.39;58.21
15604;BME280;7902;49.042;9.092;2023-09-19T08:12:39;99038.69;;;21.26;58.57
15604;BME280;7902;49.042;9.092;2023-09-19T08:15:16;99033.19;;;21.42;58.18
15604;BME280;7902;49.042;9.092;2023-09-19T08:17:43;99030.16;;;21.45;58.36
15604;BME280;7902;49.042;9.092;2023-09-19T08:20:10;99033.47;;;21.48;58.43
15604;BME280;7902;49.042;9.092;2023-09-19T08:22:50;99039.78;;;21.69;58.13
15604;BME280;7902;49.042;9.092;2023-09-19T08:25:23;99050.91;;;21.58;57.33
15604;BME280;7902;49.042;9.092;2023-09-19T08:27:50;99049.19;;;21.65;56.34
15604;BME280;7902;49.042;9.092;2023-09-19T08:30:19;99053.59;;;21.73;56.30
15604;BME280;7902;49.042;9.092;2023-09-19T08:32:50;99047.81;;;21.84;56.10
15604;BME280;7902;49.042;9.092;2023-09-19T08:35:16;99057.47;;;21.85;55.66
15604;BME280;7902;49.042;9.092;2023-09-19T08:37:42;99065.53;;;22.00;55.51
15604;BME280;7902;49.042;9.092;2023-09-19T08:40:11;99059.00;;;22.02;55.30
15604;BME280;7902;49.042;9.092;2023-09-19T08:42:52;99057.44;;;21.93;55.43
15604;BME280;7902;49.042;9.092;2023-09-19T08:45:20;99064.44;;;21.94;55.60
15604;BME280;7902;49.042;9.092;2023-09-19T08:48:16;99068.28;;;22.06;54.72
15604;BME280;7902;49.042;9.092;2023-09-19T08:50:52;99062.41;;;21.96;54.71
15604;BME280;7902;49.042;9.092;2023-09-19T08:53:27;99064.44;;;21.94;54.93
15604;BME280;7902;49.042;9.092;2023-09-19T08:55:55;99073.53;;;22.14;54.52
15604;BME280;7902;49.042;9.092;2023-09-19T08:58:26;99073.25;;;22.09;54.61
15604;BME280;7902;49.042;9.092;2023-09-19T09:00:57;99078.25;;;22.12;54.22
15604;BME280;7902;49.042;9.092;2023-09-19T09:03:25;99073.38;;;22.01;54.12
15604;BME280;7902;49.042;9.092;2023-09-19T09:05:51;99079.44;;;22.24;54.03
15604;BME280;7902;49.042;9.092;2023-09-19T09:08:19;99071.41;;;22.24;54.23
15604;BME280;7902;49.042;9.092;2023-09-19T09:10:47;99083.84;;;22.32;53.63
15604;BME280;7902;49.042;9.092;2023-09-19T09:13:14;99078.88;;;22.29;53.70
15604;BME280;7902;49.042;9.092;2023-09-19T09:15:41;99079.16;;;22.34;53.56
15604;BME280;7902;49.042;9.092;2023-09-19T09:18:07;99082.22;;;22.31;53.32
15604;BME280;7902;49.042;9.092;2023-09-19T09:20:33;99087.44;;;22.39;53.33
15604;BME280;7902;49.042;9.092;2023-09-19T09:22:59;99086.88;;;22.44;53.26
15604;BME280;7902;49.042;9.092;2023-09-19T09:28:24;99069.31;;;22.56;52.88
15604;BME280;7902;49.042;9.092;2023-09-19T09:30:50;99071.72;;;22.51;52.31
15604;BME280;7902;49.042;9.092;2023-09-19T09:33:17;99070.72;;;22.52;52.64
15604;BME280;7902;49.042;9.092;2023-09-19T09:36:03;99070.41;;;22.61;51.77
15604;BME280;7902;49.042;9.092;2023-09-19T09:38:42;99069.63;;;22.46;52.32
15604;BME280;7902;49.042;9.092;2023-09-19T09:41:09;99068.19;;;22.65;52.26
15604;BME280;7902;49.042;9.092;2023-09-19T09:43:37;99071.81;;;22.72;52.31
15604;BME280;7902;49.042;9.092;2023-09-19T09:48:42;99056.28;;;22.67;52.66
15604;BME280;7902;49.042;9.092;2023-09-19T09:51:11;99055.09;;;22.70;52.60
15604;BME280;7902;49.042;9.092;2023-09-19T09:53:42;99058.50;;;22.79;52.63
15604;BME280;7902;49.042;9.092;2023-09-19T09:56:11;99050.78;;;22.90;53.09
15604;BME280;7902;49.042;9.092;2023-09-19T10:01:14;99057.69;;;22.78;52.22
15604;BME280;7902;49.042;9.092;2023-09-19T10:03:42;99057.16;;;22.89;51.95
15604;BME280;7902;49.042;9.092;2023-09-19T10:06:16;99061.75;;;22.74;52.25
15604;BME280;7902;49.042;9.092;2023-09-19T10:09:08;99067.25;;;22.87;52.12
15604;BME280;7902;49.042;9.092;2023-09-19T10:12:04;99066.41;;;22.87;51.45
15604;BME280;7902;49.042;9.092;2023-09-19T10:14:34;99063.28;;;22.83;52.09
15604;BME280;7902;49.042;9.092;2023-09-19T10:17:02;99073.47;;;22.73;51.71
15604;BME280;7902;49.042;9.092;2023-09-19T10:19:36;99068.91;;;22.88;51.14
15604;BME280;7902;49.042;9.092;2023-09-19T10:22:04;99074.19;;;22.67;51.94
15604;BME280;7902;49.042;9.092;2023-09-19T10:24:33;99070.03;;;22.79;51.47
15604;BME280;7902;49.042;9.092;2023-09-19T10:27:00;99063.41;;;22.75;50.79
15604;BME280;7902;49.042;9.092;2023-09-19T10:29:27;99058.56;;;22.85;50.48
15604;BME280;7902;49.042;9.092;2023-09-19T10:31:56;99054.94;;;22.93;51.46
15604;BME280;7902;49.042;9.092;2023-09-19T10:34:25;99063.78;;;22.93;50.64
15604;BME280;7902;49.042;9.092;2023-09-19T10:36:52;99059.81;;;22.68;50.97
15604;BME280;7902;49.042;9.092;2023-09-19T10:39:18;99062.25;;;22.84;50.63
15604;BME280;7902;49.042;9.092;2023-09-19T10:41:52;99054.94;;;22.93;50.16
15604;BME280;7902;49.042;9.092;2023-09-19T10:44:32;99053.47;;;22.90;50.80
15604;BME280;7902;49.042;9.092;2023-09-19T10:46:58;99056.41;;;22.95;50.59
15604;BME280;7902;49.042;9.092;2023-09-19T10:49:25;99063.59;;;22.95;50.44
15604;BME280;7902;49.042;9.092;2023-09-19T10:51:57;99048.50;;;23.08;49.64
15604;BME280;7902;49.042;9.092;2023-09-19T10:54:31;99054.50;;;23.10;50.39
15604;BME280;7902;49.042;9.092;2023-09-19T10:56:59;99053.25;;;23.13;49.67
15604;BME280;7902;49.042;9.092;2023-09-19T10:59:26;99058.03;;;23.17;49.75
15604;BME280;7902;49.042;9.092;2023-09-19T11:02:16;99054.78;;;23.22;49.92
15604;BME280;7902;49.042;9.092;2023-09-19T11:04:43;99058.19;;;23.09;49.50
15604;BME280;7902;49.042;9.092;2023-09-19T11:07:13;99049.81;;;23.19;49.35
15604;BME280;7902;49.042;9.092;2023-09-19T11:09:50;99055.84;;;23.21;49.62
15604;BME280;7902;49.042;9.092;2023-09-19T11:14:57;99044.00;;;23.37;48.72
15604;BME280;7902;49.042;9.092;2023-09-19T11:17:30;99042.72;;;23.33;49.69
15604;BME280;7902;49.042;9.092;2023-09-19T11:30:45;99021.91;;;23.56;48.93
15604;BME280;7902;49.042;9.092;2023-09-19T11:33:28;99018.03;;;23.58;48.36
15604;BME280;7902;49.042;9.092;2023-09-19T11:36:14;99020.88;;;23.57;47.67
15604;BME280;7902;49.042;9.092;2023-09-19T11:49:18;99018.53;;;23.75;48.59
15604;BME280;7902;49.042;9.092;2023-09-19T11:51:52;99021.50;;;23.87;47.27
15604;BME280;7902;49.042;9.092;2023-09-19T11:54:18;99014.03;;;23.82;48.28
15604;BME280;7902;49.042;9.092;2023-09-19T11:56:52;99020.50;;;23.94;47.86
15604;BME280;7902;49.042;9.092;2023-09-19T11:59:20;99023.56;;;23.91;48.30
15604;BME280;7902;49.042;9.092;2023-09-19T12:01:52;99014.69;;;23.91;47.96
15604;BME280;7902;49.042;9.092;2023-09-19T12:04:35;99023.16;;;23.94;47.59
15604;BME280;7902;49.042;9.092;2023-09-19T12:07:06;99006.06;;;24.02;47.80
15604;BME280;7902;49.042;9.092;2023-09-19T12:09:39;99007.53;;;24.04;46.92
15604;BME280;7902;49.042;9.092;2023-09-19T12:12:06;99001.03;;;24.20;46.79
15604;BME280;7902;49.042;9.092;2023-09-19T12:14:31;99005.22;;;24.29;46.17
15604;BME280;7902;49.042;9.092;2023-09-19T12:16:58;98992.81;;;24.35;47.18
15604;BME280;7902;49.042;9.092;2023-09-19T12:19:27;98996.34;;;24.35;47.52
15604;BME280;7902;49.042;9.092;2023-09-19T12:21:59;98993.09;;;24.60;46.30
15604;BME280;7902;49.042;9.092;2023-09-19T12:24:31;98992.88;;;24.48;47.60
15604;BME280;7902;49.042;9.092;2023-09-19T12:27:01;98985.84;;;24.54;47.79
15604;BME280;7902;49.042;9.092;2023-09-19T12:29:27;98985.28;;;24.71;47.13
15604;BME280;7902;49.042;9.092;2023-09-19T12:31:54;98985.69;;;24.68;46.36
15604;BME280;7902;49.042;9.092;2023-09-19T12:34:27;98975.78;;;24.82;47.04
15604;BME280;7902;49.042;9.092;2023-09-19T12:37:23;98979.75;;;25.12;45.37
15604;BME280;7902;49.042;9.092;2023-09-19T12:40:04;98980.16;;;24.89;44.05
15604;BME280;7902;49.042;9.092;2023-09-19T12:42:40;98972.31;;;25.21;44.48
15604;BME280;7902;49.042;9.092;2023-09-19T12:45:07;98979.53;;;25.40;43.64
15604;BME280;7902;49.042;9.092;2023-09-19T12:47:35;98968.34;;;25.50;42.58
15604;BME280;7902;49.042;9.092;2023-09-19T12:50:14;98970.84;;;25.58;42.62
15604;BME280;7902;49.042;9.092;2023-09-19T12:55:29;98968.13;;;25.45;40.54
15604;BME280;7902;49.042;9.092;2023-09-19T13:00:39;98967.94;;;25.59;42.14
15604;BME280;7902;49.042;9.092;2023-09-19T13:05:54;98969.66;;;26.05;41.22
15604;BME280;7902;49.042;9.092;2023-09-19T13:08:27;98969.31;;;25.82;40.89
15604;BME280;7902;49.042;9.092;2023-09-19T13:13:43;98968.81;;;26.11;39.95
15604;BME280;7902;49.042;9.092;2023-09-19T13:16:11;98965.34;;;25.91;40.55
15604;BME280;7902;49.042;9.092;2023-09-19T13:18:58;98970.41;;;26.25;39.95
15604;BME280;7902;49.042;9.092;2023-09-19T13:21:31;98969.56;;;26.31;40.13
15604;BME280;7902;49.042;9.092;2023-09-19T13:24:22;98956.59;;;26.53;39.49
15604;BME280;7902;49.042;9.092;2023-09-19T13:26:53;98955.59;;;26.47;39.22
15604;BME280;7902;49.042;9.092;2023-09-19T13:29:19;98964.75;;;26.40;39.21
15604;BME280;7902;49.042;9.092;2023-09-19T13:31:46;98966.47;;;26.28;39.11
15604;BME280;7902;49.042;9.092;2023-09-19T13:34:13;98955.03;;;26.39;39.01
15604;BME280;7902;49.042;9.092;2023-09-19T13:36:42;98956.97;;;26.25;39.22
15604;BME280;7902;49.042;9.092;2023-09-19T13:39:08;98955.03;;;26.32;40.15
15604;BME280;7902;49.042;9.092;2023-09-19T13:41:43;98943.34;;;26.51;39.68
15604;BME280;7902;49.042;9.092;2023-09-19T13:44:09;98951.50;;;26.38;39.31
15604;BME280;7902;49.042;9.092;2023-09-19T13:46:38;98943.50;;;26.56;39.62
15604;BME280;7902;49.042;9.092;2023-09-19T13:49:04;98944.38;;;26.88;39.06
15604;BME280;7902;49.042;9.092;2023-09-19T13:51:30;98935.59;;;26.61;38.72
15604;BME280;7902;49.042;9.092;2023-09-19T13:53:56;98931.78;;;26.44;39.39
15604;BME280;7902;49.042;9.092;2023-09-19T13:56:22;98929.19;;;26.62;39.48
15604;BME280;7902;49.042;9.092;2023-09-19T13:58:49;98923.75;;;26.69;39.34
15604;BME280;7902;49.042;9.092;2023-09-19T14:01:15;98924.06;;;26.86;40.46
15604;BME280;7902;49.042;9.092;2023-09-19T14:03:41;98914.53;;;26.83;40.00
15604;BME280;7902;49.042;9.092;2023-09-19T14:06:15;98922.31;;;26.98;39.88
15604;BME280;7902;49.042;9.092;2023-09-19T14:08:42;98910.84;;;26.78;38.04
15604;BME280;7902;49.042;9.092;2023-09-19T14:11:08;98912.66;;;26.84;39.16
15604;BME280;7902;49.042;9.092;2023-09-19T14:13:34;98900.47;;;26.50;38.00
15604;BME280;7902;49.042;9.092;2023-09-19T14:16:04;98911.91;;;26.70;39.08